sensor_id;sensor_type;location;lat;lon;timestamp;pressure;altitude;pressure_sealevel;temperature;humidity
79589;BME280;69067;51.930;4.492;2023-05-07T00:00:04;101569.50;;;20.48;53.83
79589;BME280;69067;51.930;4.492;2023-05-07T00:02:33;101565.44;;;20.43;53.89
79589;BME280;69067;51.930;4.492;2023-05-07T00:04:59;101576.75;;;20.47;54.62
79589;BME280;69067;51.930;4.492;2023-05-07T00:07:25;101570.34;;;20.48;53.89
79589;BME280;69067;51.930;4.492;2023-05-07T00:09:50;101575.75;;;20.48;53.54
79589;BME280;69067;51.930;4.492;2023-05-07T00:12:16;101576.75;;;20.47;53.69
79589;BME280;69067;51.930;4.492;2023-05-07T00:14:42;101574.06;;;20.47;53.67
79589;BME280;69067;51.930;4.492;2023-05-07T00:17:08;101572.38;;;20.46;53.31
79589;BME280;69067;51.930;4.492;2023-05-07T00:19:34;101567.47;;;20.41;54.32
79589;BME280;69067;51.930;4.492;2023-05-07T00:21:59;101580.31;;;20.48;54.55
79589;BME280;69067;51.930;4.492;2023-05-07T00:24:25;101575.75;;;20.48;54.25
79589;BME280;69067;51.930;4.492;2023-05-07T00:26:51;101567.63;;;20.48;53.62
79589;BME280;69067;51.930;4.492;2023-05-07T00:29:18;101564.06;;;20.48;54.27
79589;BME280;69067;51.930;4.492;2023-05-07T00:31:43;101568.66;;;20.47;54.60
79589;BME280;69067;51.930;4.492;2023-05-07T00:34:09;101560.72;;;20.46;54.14
79589;BME280;69067;51.930;4.492;2023-05-07T00:36:35;101561.56;;;20.46;54.59
79589;BME280;69067;51.930;4.492;2023-05-07T00:39:01;101569.50;;;20.48;54.33
79589;BME280;69067;51.930;4.492;2023-05-07T00:41:29;101564.06;;;20.48;54.50
79589;BME280;69067;51.930;4.492;2023-05-07T00:43:56;101557.00;;;20.47;54.88
79589;BME280;69067;51.930;4.492;2023-05-07T00:46:23;101561.38;;;20.48;54.71
79589;BME280;69067;51.930;4.492;2023-05-07T00:48:50;101555.81;;;20.49;54.20
79589;BME280;69067;51.930;4.492;2023-05-07T00:51:17;101563.22;;;20.47;54.69
79589;BME280;69067;51.930;4.492;2023-05-07T00:53:44;101558.66;;;20.48;54.55
79589;BME280;69067;51.930;4.492;2023-05-07T00:56:11;101561.22;;;20.49;54.40
79589;BME280;69067;51.930;4.492;2023-05-07T00:58:37;101554.47;;;20.45;54.55
79589;BME280;69067;51.930;4.492;2023-05-07T01:01:03;101559.53;;;20.48;54.59
79589;BME280;69067;51.930;4.492;2023-05-07T01:03:29;101558.66;;;20.48;54.73
79589;BME280;69067;51.930;4.492;2023-05-07T01:05:57;101562.22;;;20.48;55.04
79589;BME280;69067;51.930;4.492;2023-05-07T01:08:24;101545.50;;;20.44;54.47
79589;BME280;69067;51.930;4.492;2023-05-07T01:10:52;101545.50;;;20.44;54.23
79589;BME280;69067;51.930;4.492;2023-05-07T01:13:20;101539.25;;;20.44;54.41
79589;BME280;69067;51.930;4.492;2023-05-07T01:15:46;101539.41;;;20.42;53.96
79589;BME280;69067;51.930;4.492;2023-05-07T01:18:13;101550.56;;;20.48;54.22
79589;BME280;69067;51.930;4.492;2023-05-07T01:20:39;101539.94;;;20.46;54.83
79589;BME280;69067;51.930;4.492;2023-05-07T01:23:06;101547.00;;;20.47;54.57
79589;BME280;69067;51.930;4.492;2023-05-07T01:25:32;101545.34;;;20.46;54.13
79589;BME280;69067;51.930;4.492;2023-05-07T01:27:58;101547.00;;;20.47;54.31
79589;BME280;69067;51.930;4.492;2023-05-07T01:30:28;101531.13;;;20.44;53.76
79589;BME280;69067;51.930;4.492;2023-05-07T01:33:11;101532.81;;;20.45;54.41
79589;BME280;69067;51.930;4.492;2023-05-07T01:35:43;101539.72;;;20.48;54.82
79589;BME280;69067;51.930;4.492;2023-05-07T01:38:12;101544.28;;;20.47;55.01
79589;BME280;69067;51.930;4.492;2023-05-07T01:40:39;101537.22;;;20.46;54.51
79589;BME280;69067;51.930;4.492;2023-05-07T01:43:05;101541.59;;;20.47;55.21
79589;BME280;69067;51.930;4.492;2023-05-07T01:45:34;101537.88;;;20.48;54.71
79589;BME280;69067;51.930;4.492;2023-05-07T01:48:01;101537.03;;;20.48;55.41
79589;BME280;69067;51.930;4.492;2023-05-07T01:50:29;101538.72;;;20.49;55.23
79589;BME280;69067;51.930;4.492;2023-05-07T01:52:56;101537.88;;;20.48;55.37
79589;BME280;69067;51.930;4.492;2023-05-07T01:55:22;101535.16;;;20.48;55.84
79589;BME280;69067;51.930;4.492;2023-05-07T01:57:48;101532.47;;;20.48;56.12
79589;BME280;69067;51.930;4.492;2023-05-07T02:00:13;101529.09;;;20.46;55.41
79589;BME280;69067;51.930;4.492;2023-05-07T02:02:39;101532.47;;;20.48;55.91
79589;BME280;69067;51.930;4.492;2023-05-07T02:05:05;101528.75;;;20.49;55.62
79589;BME280;69067;51.930;4.492;2023-05-07T02:07:31;101517.94;;;20.49;55.10
79589;BME280;69067;51.930;4.492;2023-05-07T02:09:57;101517.06;;;20.49;55.04
79589;BME280;69067;51.930;4.492;2023-05-07T02:12:23;101533.31;;;20.49;55.80
79589;BME280;69067;51.930;4.492;2023-05-07T02:14:49;101536.00;;;20.49;55.67
79589;BME280;69067;51.930;4.492;2023-05-07T02:17:15;101533.31;;;20.49;55.01
79589;BME280;69067;51.930;4.492;2023-05-07T02:19:40;101537.88;;;20.48;55.71
79589;BME280;69067;51.930;4.492;2023-05-07T02:22:07;101542.28;;;20.49;55.19
79589;BME280;69067;51.930;4.492;2023-05-07T02:24:33;101537.38;;;20.44;55.45
79589;BME280;69067;51.930;4.492;2023-05-07T02:26:58;101544.13;;;20.49;55.35
79589;BME280;69067;51.930;4.492;2023-05-07T02:29:24;101538.88;;;20.47;55.64
79589;BME280;69067;51.930;4.492;2023-05-07T02:31:50;101536.38;;;20.46;55.38
79589;BME280;69067;51.930;4.492;2023-05-07T02:34:19;101544.13;;;20.49;55.39
79589;BME280;69067;51.930;4.492;2023-05-07T02:36:45;101539.25;;;20.44;55.17
79589;BME280;69067;51.930;4.492;2023-05-07T02:39:12;101532.81;;;20.45;55.22
79589;BME280;69067;51.930;4.492;2023-05-07T02:41:38;101531.13;;;20.44;55.26
79589;BME280;69067;51.930;4.492;2023-05-07T02:44:05;101529.97;;;20.47;54.49
79589;BME280;69067;51.930;4.492;2023-05-07T02:46:30;101530.13;;;20.45;54.91
79589;BME280;69067;51.930;4.492;2023-05-07T02:48:56;101531.81;;;20.46;54.84
79589;BME280;69067;51.930;4.492;2023-05-07T02:51:22;101535.16;;;20.48;54.47
79589;BME280;69067;51.930;4.492;2023-05-07T02:53:48;101535.53;;;20.45;54.56
79589;BME280;69067;51.930;4.492;2023-05-07T02:56:14;101541.59;;;20.47;54.61
79589;BME280;69067;51.930;4.492;2023-05-07T02:58:40;101537.03;;;20.48;55.19
79589;BME280;69067;51.930;4.492;2023-05-07T03:01:08;101539.25;;;20.44;54.30
79589;BME280;69067;51.930;4.492;2023-05-07T03:03:34;101539.09;;;20.46;54.27
79589;BME280;69067;51.930;4.492;2023-05-07T03:06:00;101535.69;;;20.43;55.17
79589;BME280;69067;51.930;4.492;2023-05-07T03:08:27;101539.09;;;20.46;55.02
79589;BME280;69067;51.930;4.492;2023-05-07T03:10:52;101542.63;;;20.46;55.03
79589;BME280;69067;51.930;4.492;2023-05-07T03:13:18;101537.22;;;20.46;54.68
79589;BME280;69067;51.930;4.492;2023-05-07T03:15:44;101542.78;;;20.44;54.80
79589;BME280;69067;51.930;4.492;2023-05-07T03:18:10;101539.09;;;20.46;54.94
79589;BME280;69067;51.930;4.492;2023-05-07T03:20:36;101535.69;;;20.43;54.61
79589;BME280;69067;51.930;4.492;2023-05-07T03:23:02;101536.53;;;20.44;54.05
79589;BME280;69067;51.930;4.492;2023-05-07T03:25:28;101539.41;;;20.42;54.98
79589;BME280;69067;51.930;4.492;2023-05-07T03:27:55;101536.38;;;20.46;54.75
79589;BME280;69067;51.930;4.492;2023-05-07T03:30:22;101527.91;;;20.40;55.02
79589;BME280;69067;51.930;4.492;2023-05-07T03:32:47;101534.00;;;20.42;55.26
79589;BME280;69067;51.930;4.492;2023-05-07T03:35:14;101542.63;;;20.46;55.51
79589;BME280;69067;51.930;4.492;2023-05-07T03:37:40;101537.22;;;20.46;54.68
79589;BME280;69067;51.930;4.492;2023-05-07T03:40:06;101528.44;;;20.44;54.66
79589;BME280;69067;51.930;4.492;2023-05-07T03:42:33;101533.66;;;20.46;55.40
79589;BME280;69067;51.930;4.492;2023-05-07T03:44:59;101535.53;;;20.45;55.17
79589;BME280;69067;51.930;4.492;2023-05-07T03:47:24;101537.38;;;20.44;55.37
79589;BME280;69067;51.930;4.492;2023-05-07T03:49:50;101540.94;;;20.45;54.76
79589;BME280;69067;51.930;4.492;2023-05-07T03:52:18;101538.22;;;20.45;55.03
79589;BME280;69067;51.930;4.492;2023-05-07T03:54:48;101534.16;;;20.41;54.64
79589;BME280;69067;51.930;4.492;2023-05-07T03:57:13;101540.94;;;20.45;54.69
79589;BME280;69067;51.930;4.492;2023-05-07T03:59:39;101541.94;;;20.44;54.72
79589;BME280;69067;51.930;4.492;2023-05-07T04:02:05;101544.81;;;20.42;55.26
79589;BME280;69067;51.930;4.492;2023-05-07T04:04:31;101540.59;;;20.40;54.69
79589;BME280;69067;51.930;4.492;2023-05-07T04:06:58;101543.28;;;20.40;54.27
79589;BME280;69067;51.930;4.492;2023-05-07T04:09:25;101538.91;;;20.39;54.83
79589;BME280;69067;51.930;4.492;2023-05-07T04:11:51;101544.81;;;20.42;54.74
79589;BME280;69067;51.930;4.492;2023-05-07T04:14:17;101555.47;;;20.44;54.98
79589;BME280;69067;51.930;4.492;2023-05-07T04:16:42;101554.63;;;20.43;55.31
79589;BME280;69067;51.930;4.492;2023-05-07T04:19:08;101554.78;;;20.42;54.52
79589;BME280;69067;51.930;4.492;2023-05-07T04:21:34;101550.22;;;20.42;54.75
79589;BME280;69067;51.930;4.492;2023-05-07T04:24:00;101544.81;;;20.42;55.08
79589;BME280;69067;51.930;4.492;2023-05-07T04:26:25;101545.81;;;20.41;55.88
79589;BME280;69067;51.930;4.492;2023-05-07T04:28:51;101545.50;;;20.44;55.71
79589;BME280;69067;51.930;4.492;2023-05-07T04:31:17;101553.63;;;20.44;55.15
79589;BME280;69067;51.930;4.492;2023-05-07T04:33:42;101550.06;;;20.44;54.86
79589;BME280;69067;51.930;4.492;2023-05-07T04:36:09;101546.00;;;20.40;55.28
79589;BME280;69067;51.930;4.492;2023-05-07T04:38:34;101551.94;;;20.43;55.34
79589;BME280;69067;51.930;4.492;2023-05-07T04:41:04;101546.00;;;20.40;54.94
79589;BME280;69067;51.930;4.492;2023-05-07T04:43:31;101557.34;;;20.43;55.35
79589;BME280;69067;51.930;4.492;2023-05-07T04:45:57;101552.94;;;20.42;54.85
79589;BME280;69067;51.930;4.492;2023-05-07T04:48:22;101553.78;;;20.43;55.35
79589;BME280;69067;51.930;4.492;2023-05-07T04:50:49;101547.53;;;20.42;55.20
79589;BME280;69067;51.930;4.492;2023-05-07T04:53:16;101561.03;;;20.42;54.56
79589;BME280;69067;51.930;4.492;2023-05-07T04:55:43;101553.09;;;20.41;54.87
79589;BME280;69067;51.930;4.492;2023-05-07T04:58:09;101554.78;;;20.42;54.99
79589;BME280;69067;51.930;4.492;2023-05-07T05:00:35;101556.66;;;20.41;54.56
79589;BME280;69067;51.930;4.492;2023-05-07T05:03:01;101554.78;;;20.42;54.63
79589;BME280;69067;51.930;4.492;2023-05-07T05:05:26;101559.34;;;20.41;54.67
79589;BME280;69067;51.930;4.492;2023-05-07T05:07:52;101562.91;;;20.42;55.08
79589;BME280;69067;51.930;4.492;2023-05-07T05:10:18;101558.34;;;20.42;55.48
79589;BME280;69067;51.930;4.492;2023-05-07T05:12:44;101562.06;;;20.41;54.83
79589;BME280;69067;51.930;4.492;2023-05-07T05:15:12;101564.75;;;20.41;55.35
79589;BME280;69067;51.930;4.492;2023-05-07T05:17:38;101570.19;;;20.41;55.17
79589;BME280;69067;51.930;4.492;2023-05-07T05:20:05;101567.63;;;20.40;55.31
79589;BME280;69067;51.930;4.492;2023-05-07T05:22:32;101570.34;;;20.40;54.91
79589;BME280;69067;51.930;4.492;2023-05-07T05:24:58;101569.31;;;20.41;55.06
79589;BME280;69067;51.930;4.492;2023-05-07T05:27:24;101579.28;;;20.40;55.06
79589;BME280;69067;51.930;4.492;2023-05-07T05:29:49;101578.44;;;20.40;55.04
79589;BME280;69067;51.930;4.492;2023-05-07T05:32:15;101581.84;;;20.42;54.54
79589;BME280;69067;51.930;4.492;2023-05-07T05:34:41;101584.72;;;20.40;54.81
79589;BME280;69067;51.930;4.492;2023-05-07T05:37:07;101590.13;;;20.40;54.99
79589;BME280;69067;51.930;4.492;2023-05-07T05:39:33;101589.28;;;20.40;54.46
79589;BME280;69067;51.930;4.492;2023-05-07T05:41:59;101591.16;;;20.39;54.83
79589;BME280;69067;51.930;4.492;2023-05-07T05:44:25;101587.78;;;20.37;54.49
79589;BME280;69067;51.930;4.492;2023-05-07T05:46:50;101600.94;;;20.40;54.72
79589;BME280;69067;51.930;4.492;2023-05-07T05:49:16;101592.34;;;20.37;54.71
79589;BME280;69067;51.930;4.492;2023-05-07T05:51:42;101591.47;;;20.36;54.79
79589;BME280;69067;51.930;4.492;2023-05-07T05:54:08;101600.28;;;20.38;55.03
79589;BME280;69067;51.930;4.492;2023-05-07T05:56:34;101608.03;;;20.41;55.22
79589;BME280;69067;51.930;4.492;2023-05-07T05:59:00;101604.69;;;20.39;55.49
79589;BME280;69067;51.930;4.492;2023-05-07T06:01:26;101604.50;;;20.41;55.79
79589;BME280;69067;51.930;4.492;2023-05-07T06:03:51;101596.72;;;20.38;55.97
79589;BME280;69067;51.930;4.492;2023-05-07T06:06:17;101600.44;;;20.37;55.92
79589;BME280;69067;51.930;4.492;2023-05-07T06:08:44;101610.91;;;20.40;55.72
79589;BME280;69067;51.930;4.492;2023-05-07T06:11:10;101605.50;;;20.40;55.91
79589;BME280;69067;51.930;4.492;2023-05-07T06:13:35;101602.16;;;20.38;55.27
79589;BME280;69067;51.930;4.492;2023-05-07T06:16:01;101602.78;;;20.40;55.34
79589;BME280;69067;51.930;4.492;2023-05-07T06:18:27;101609.25;;;20.39;55.11
79589;BME280;69067;51.930;4.492;2023-05-07T06:20:53;101603.16;;;20.37;54.85
79589;BME280;69067;51.930;4.492;2023-05-07T06:23:19;101603.00;;;20.38;54.74
79589;BME280;69067;51.930;4.492;2023-05-07T06:25:49;101607.56;;;20.38;55.29
79589;BME280;69067;51.930;4.492;2023-05-07T06:28:16;101605.50;;;20.40;55.28
79589;BME280;69067;51.930;4.492;2023-05-07T06:30:41;101605.50;;;20.40;55.18
79589;BME280;69067;51.930;4.492;2023-05-07T06:33:07;101606.69;;;20.37;55.62
79589;BME280;69067;51.930;4.492;2023-05-07T06:35:33;101600.44;;;20.37;55.87
79589;BME280;69067;51.930;4.492;2023-05-07T06:38:00;101595.88;;;20.37;55.05
79589;BME280;69067;51.930;4.492;2023-05-07T06:40:26;101609.25;;;20.39;55.72
79589;BME280;69067;51.930;4.492;2023-05-07T06:42:52;101599.44;;;20.38;55.27
79589;BME280;69067;51.930;4.492;2023-05-07T06:45:19;101599.28;;;20.39;55.16
79589;BME280;69067;51.930;4.492;2023-05-07T06:47:45;101607.56;;;20.38;55.78
79589;BME280;69067;51.930;4.492;2023-05-07T06:50:11;101599.28;;;20.39;55.61
79589;BME280;69067;51.930;4.492;2023-05-07T06:52:37;101601.13;;;20.39;56.51
79589;BME280;69067;51.930;4.492;2023-05-07T06:55:03;101598.06;;;20.34;56.50
79589;BME280;69067;51.930;4.492;2023-05-07T06:57:30;101612.81;;;20.39;56.24
79589;BME280;69067;51.930;4.492;2023-05-07T06:59:55;101603.84;;;20.39;56.80
79589;BME280;69067;51.930;4.492;2023-05-07T07:02:21;101599.44;;;20.38;56.38
79589;BME280;69067;51.930;4.492;2023-05-07T07:04:47;101606.53;;;20.39;56.94
79589;BME280;69067;51.930;4.492;2023-05-07T07:07:13;101612.13;;;20.37;56.52
79589;BME280;69067;51.930;4.492;2023-05-07T07:09:38;101610.91;;;20.40;57.08
79589;BME280;69067;51.930;4.492;2023-05-07T07:12:04;101618.00;;;20.41;56.74
79589;BME280;69067;51.930;4.492;2023-05-07T07:14:30;101617.16;;;20.40;56.36
79589;BME280;69067;51.930;4.492;2023-05-07T07:16:56;101615.31;;;20.41;56.72
79589;BME280;69067;51.930;4.492;2023-05-07T07:19:21;101621.72;;;20.40;55.89
79589;BME280;69067;51.930;4.492;2023-05-07T07:21:47;101621.72;;;20.40;56.52
79589;BME280;69067;51.930;4.492;2023-05-07T07:24:13;101630.53;;;20.42;57.13
79589;BME280;69067;51.930;4.492;2023-05-07T07:26:44;101618.00;;;20.41;56.23
79589;BME280;69067;51.930;4.492;2023-05-07T07:29:10;101621.72;;;20.40;56.39
79589;BME280;69067;51.930;4.492;2023-05-07T07:31:36;101611.28;;;20.37;56.36
79589;BME280;69067;51.930;4.492;2023-05-07T07:34:02;101621.72;;;20.40;56.80
79589;BME280;69067;51.930;4.492;2023-05-07T07:36:27;101627.13;;;20.40;56.73
79589;BME280;69067;51.930;4.492;2023-05-07T07:38:54;101628.00;;;20.40;55.42
79589;BME280;69067;51.930;4.492;2023-05-07T07:41:20;101631.72;;;20.39;56.31
79589;BME280;69067;51.930;4.492;2023-05-07T07:43:45;101627.13;;;20.40;55.86
79589;BME280;69067;51.930;4.492;2023-05-07T07:46:12;101628.00;;;20.40;55.97
79589;BME280;69067;51.930;4.492;2023-05-07T07:48:38;101622.78;;;20.39;56.69
79589;BME280;69067;51.930;4.492;2023-05-07T07:51:04;101623.44;;;20.41;55.56
79589;BME280;69067;51.930;4.492;2023-05-07T07:53:30;101616.69;;;20.37;55.67
79589;BME280;69067;51.930;4.492;2023-05-07T07:55:56;101620.06;;;20.39;55.61
79589;BME280;69067;51.930;4.492;2023-05-07T07:58:21;101622.59;;;20.40;55.94
79589;BME280;69067;51.930;4.492;2023-05-07T08:00:48;101628.00;;;20.40;56.35
79589;BME280;69067;51.930;4.492;2023-05-07T08:03:14;101613.97;;;20.37;56.30
79589;BME280;69067;51.930;4.492;2023-05-07T08:05:42;101618.53;;;20.36;56.24
79589;BME280;69067;51.930;4.492;2023-05-07T08:08:08;101631.53;;;20.41;56.35
79589;BME280;69067;51.930;4.492;2023-05-07T08:10:35;101635.09;;;20.41;56.49
79589;BME280;69067;51.930;4.492;2023-05-07T08:13:04;101622.59;;;20.40;55.80
79589;BME280;69067;51.930;4.492;2023-05-07T08:15:30;101626.13;;;20.41;55.96
79589;BME280;69067;51.930;4.492;2023-05-07T08:17:57;101627.81;;;20.42;56.33
79589;BME280;69067;51.930;4.492;2023-05-07T08:20:25;101639.50;;;20.42;56.67
79589;BME280;69067;51.930;4.492;2023-05-07T08:22:51;101637.97;;;20.40;56.37
79589;BME280;69067;51.930;4.492;2023-05-07T08:25:17;101640.66;;;20.40;56.05
79589;BME280;69067;51.930;4.492;2023-05-07T08:27:43;101646.59;;;20.43;56.80
79589;BME280;69067;51.930;4.492;2023-05-07T08:30:10;101643.38;;;20.40;56.71
79589;BME280;69067;51.930;4.492;2023-05-07T08:32:36;101649.31;;;20.43;57.33
79589;BME280;69067;51.930;4.492;2023-05-07T08:35:02;101644.91;;;20.42;56.80
79589;BME280;69067;51.930;4.492;2023-05-07T08:37:28;101651.84;;;20.45;57.20
79589;BME280;69067;51.930;4.492;2023-05-07T08:39:54;101652.19;;;20.42;57.04
79589;BME280;69067;51.930;4.492;2023-05-07T08:42:23;101658.97;;;20.46;57.62
79589;BME280;69067;51.930;4.492;2023-05-07T08:44:51;101653.03;;;20.42;57.34
79589;BME280;69067;51.930;4.492;2023-05-07T08:47:23;101648.13;;;20.46;57.29
79589;BME280;69067;51.930;4.492;2023-05-07T08:49:55;101656.41;;;20.44;56.55
79589;BME280;69067;51.930;4.492;2023-05-07T08:52:20;101658.97;;;20.46;57.49
79589;BME280;69067;51.930;4.492;2023-05-07T08:54:46;101658.97;;;20.46;57.29
79589;BME280;69067;51.930;4.492;2023-05-07T08:57:13;101657.25;;;20.45;57.42
79589;BME280;69067;51.930;4.492;2023-05-07T08:59:40;101656.06;;;20.48;57.33
79589;BME280;69067;51.930;4.492;2023-05-07T09:02:10;101657.75;;;20.49;57.54
79589;BME280;69067;51.930;4.492;2023-05-07T09:04:36;101656.91;;;20.48;56.96
79589;BME280;69067;51.930;4.492;2023-05-07T09:07:02;101658.59;;;20.49;56.80
79589;BME280;69067;51.930;4.492;2023-05-07T09:09:32;101664.03;;;20.49;57.41
79589;BME280;69067;51.930;4.492;2023-05-07T09:11:59;101668.56;;;20.49;57.45
79589;BME280;69067;51.930;4.492;2023-05-07T09:14:25;101656.25;;;20.46;56.66
79589;BME280;69067;51.930;4.492;2023-05-07T09:16:54;101665.72;;;20.50;56.98
79589;BME280;69067;51.930;4.492;2023-05-07T09:19:24;101665.72;;;20.50;56.93
79589;BME280;69067;51.930;4.492;2023-05-07T09:21:57;101673.84;;;20.50;56.90
79589;BME280;69067;51.930;4.492;2023-05-07T09:24:23;101670.97;;;20.52;56.65
79589;BME280;69067;51.930;4.492;2023-05-07T09:26:49;101668.25;;;20.52;56.93
79589;BME280;69067;51.930;4.492;2023-05-07T09:29:15;101668.25;;;20.52;56.70
79589;BME280;69067;51.930;4.492;2023-05-07T09:31:42;101664.88;;;20.50;56.53
79589;BME280;69067;51.930;4.492;2023-05-07T09:34:08;101669.28;;;20.51;56.52
79589;BME280;69067;51.930;4.492;2023-05-07T09:36:34;101671.97;;;20.51;57.23
79589;BME280;69067;51.930;4.492;2023-05-07T09:39:00;101681.63;;;20.53;56.93
79589;BME280;69067;51.930;4.492;2023-05-07T09:41:26;101676.22;;;20.53;57.04
79589;BME280;69067;51.930;4.492;2023-05-07T09:43:56;101668.94;;;20.54;57.09
79589;BME280;69067;51.930;4.492;2023-05-07T09:46:29;101672.66;;;20.53;56.79
79589;BME280;69067;51.930;4.492;2023-05-07T09:49:02;101666.03;;;20.55;57.54
79589;BME280;69067;51.930;4.492;2023-05-07T09:51:34;101664.19;;;20.56;57.78
79589;BME280;69067;51.930;4.492;2023-05-07T09:54:07;101668.59;;;20.57;58.55
79589;BME280;69067;51.930;4.492;2023-05-07T09:56:33;101672.47;;;20.54;57.96
79589;BME280;69067;51.930;4.492;2023-05-07T09:59:00;101675.84;;;20.56;57.05
79589;BME280;69067;51.930;4.492;2023-05-07T10:01:29;101674.53;;;20.52;57.17
79589;BME280;69067;51.930;4.492;2023-05-07T10:03:57;101674.16;;;20.55;57.37
79589;BME280;69067;51.930;4.492;2023-05-07T10:06:25;101673.31;;;20.55;57.42
79589;BME280;69067;51.930;4.492;2023-05-07T10:08:52;101673.31;;;20.55;57.86
79589;BME280;69067;51.930;4.492;2023-05-07T10:11:19;101680.44;;;20.56;57.13
79589;BME280;69067;51.930;4.492;2023-05-07T10:13:46;101674.16;;;20.55;56.63
79589;BME280;69067;51.930;4.492;2023-05-07T10:16:12;101668.25;;;20.52;57.31
79589;BME280;69067;51.930;4.492;2023-05-07T10:18:38;101670.63;;;20.55;57.21
79589;BME280;69067;51.930;4.492;2023-05-07T10:21:21;101672.16;;;20.57;57.06
79589;BME280;69067;51.930;4.492;2023-05-07T10:23:58;101667.75;;;20.56;56.79
79589;BME280;69067;51.930;4.492;2023-05-07T10:26:27;101669.59;;;20.56;56.58
79589;BME280;69067;51.930;4.492;2023-05-07T10:29:02;101679.25;;;20.58;56.44
79589;BME280;69067;51.930;4.492;2023-05-07T10:34:22;101680.94;;;20.59;56.51
79589;BME280;69067;51.930;4.492;2023-05-07T10:36:52;101682.81;;;20.59;56.68
79589;BME280;69067;51.930;4.492;2023-05-07T10:39:19;101670.44;;;20.56;55.95
79589;BME280;69067;51.930;4.492;2023-05-07T10:41:46;101679.25;;;20.58;56.00
79589;BME280;69067;51.930;4.492;2023-05-07T10:44:27;101682.13;;;20.57;56.09
79589;BME280;69067;51.930;4.492;2023-05-07T10:47:14;101687.38;;;20.58;55.58
79589;BME280;69067;51.930;4.492;2023-05-07T10:52:23;101685.34;;;20.60;55.86
79589;BME280;69067;51.930;4.492;2023-05-07T10:57:40;101684.66;;;20.58;55.58
79589;BME280;69067;51.930;4.492;2023-05-07T11:05:24;101697.84;;;20.61;55.49
79589;BME280;69067;51.930;4.492;2023-05-07T11:07:54;101700.75;;;20.60;55.25
79589;BME280;69067;51.930;4.492;2023-05-07T11:10:21;101687.22;;;20.60;55.31
79589;BME280;69067;51.930;4.492;2023-05-07T11:12:52;101690.75;;;20.60;55.41
79589;BME280;69067;51.930;4.492;2023-05-07T11:15:37;101694.28;;;20.61;55.75
79589;BME280;69067;51.930;4.492;2023-05-07T11:18:05;101694.13;;;20.62;55.29
79589;BME280;69067;51.930;4.492;2023-05-07T11:26:05;101694.13;;;20.62;54.96
79589;BME280;69067;51.930;4.492;2023-05-07T11:28:39;101691.41;;;20.62;54.75
79589;BME280;69067;51.930;4.492;2023-05-07T11:31:06;101686.84;;;20.63;54.83
79589;BME280;69067;51.930;4.492;2023-05-07T11:33:32;101695.81;;;20.63;54.80
79589;BME280;69067;51.930;4.492;2023-05-07T11:35:59;101693.13;;;20.63;55.06
79589;BME280;69067;51.930;4.492;2023-05-07T11:38:26;101700.22;;;20.64;54.76
79589;BME280;69067;51.930;4.492;2023-05-07T11:40:53;101690.56;;;20.62;55.01
79589;BME280;69067;51.930;4.492;2023-05-07T11:43:20;101696.84;;;20.62;55.50
79589;BME280;69067;51.930;4.492;2023-05-07T11:45:47;101695.81;;;20.63;55.35
79589;BME280;69067;51.930;4.492;2023-05-07T11:48:14;101706.50;;;20.65;55.39
79589;BME280;69067;51.930;4.492;2023-05-07T11:51:00;101700.91;;;20.66;55.18
79589;BME280;69067;51.930;4.492;2023-05-07T11:53:38;101703.63;;;20.66;55.29
79589;BME280;69067;51.930;4.492;2023-05-07T11:56:10;101701.94;;;20.65;55.43
79589;BME280;69067;51.930;4.492;2023-05-07T11:58:37;101702.94;;;20.64;55.48
79589;BME280;69067;51.930;4.492;2023-05-07T12:01:03;101710.72;;;20.67;55.20
79589;BME280;69067;51.930;4.492;2023-05-07T12:03:29;101701.75;;;20.67;56.14
79589;BME280;69067;51.930;4.492;2023-05-07T12:05:55;101696.66;;;20.64;55.05
79589;BME280;69067;51.930;4.492;2023-05-07T12:08:21;101702.41;;;20.69;54.87
79589;BME280;69067;51.930;4.492;2023-05-07T12:10:49;101705.31;;;20.67;55.08
79589;BME280;69067;51.930;4.492;2023-05-07T12:13:22;101700.56;;;20.69;55.70
79589;BME280;69067;51.930;4.492;2023-05-07T12:15:55;101707.84;;;20.69;55.47
79589;BME280;69067;51.930;4.492;2023-05-07T12:18:22;101714.09;;;20.69;55.35
79589;BME280;69067;51.930;4.492;2023-05-07T12:20:49;101707.66;;;20.70;55.63
79589;BME280;69067;51.930;4.492;2023-05-07T12:23:16;101703.25;;;20.69;55.98
79589;BME280;69067;51.930;4.492;2023-05-07T12:25:43;101704.97;;;20.70;54.64
79589;BME280;69067;51.930;4.492;2023-05-07T12:28:17;101704.97;;;20.70;55.51
79589;BME280;69067;51.930;4.492;2023-05-07T12:30:48;101708.69;;;20.69;55.47
79589;BME280;69067;51.930;4.492;2023-05-07T12:33:18;101706.66;;;20.71;55.71
79589;BME280;69067;51.930;4.492;2023-05-07T12:35:47;101701.25;;;20.71;55.05
79589;BME280;69067;51.930;4.492;2023-05-07T12:38:15;101702.09;;;20.72;55.83
79589;BME280;69067;51.930;4.492;2023-05-07T12:40:48;101715.47;;;20.73;55.96
79589;BME280;69067;51.930;4.492;2023-05-07T12:43:17;101714.63;;;20.73;55.76
79589;BME280;69067;51.930;4.492;2023-05-07T12:45:44;101717.97;;;20.75;55.51
79589;BME280;69067;51.930;4.492;2023-05-07T12:48:11;101721.53;;;20.75;55.53
79589;BME280;69067;51.930;4.492;2023-05-07T12:50:36;101723.22;;;20.76;55.72
79589;BME280;69067;51.930;4.492;2023-05-07T12:53:07;101714.63;;;20.73;55.53
79589;BME280;69067;51.930;4.492;2023-05-07T12:55:59;101722.22;;;20.77;56.29
79589;BME280;69067;51.930;4.492;2023-05-07T12:58:30;101730.19;;;20.79;55.96
79589;BME280;69067;51.930;4.492;2023-05-07T13:01:00;101733.91;;;20.78;56.71
79589;BME280;69067;51.930;4.492;2023-05-07T13:03:33;101729.34;;;20.78;56.17
79589;BME280;69067;51.930;4.492;2023-05-07T13:06:05;101740.31;;;20.77;56.09
79589;BME280;69067;51.930;4.492;2023-05-07T13:08:34;101741.00;;;20.79;56.12